Time;durP1;ratioP1;P1;durP2;ratioP2;P2;SDS_P1;SDS_P2;PMS_P1;PMS_P2;Temp;Humidity;BMP_temperature;BMP_pressure;BME280_temperature;BME280_humidity;BME280_pressure;Samples;Min_cycle;Max_cycle;Signal;HPM_P1;HPM_P2
2022/06/14 00:02:29;;;;;;;;;;;20.50;80.40;;;;;;6195576;23;19938;-96
2022/06/14 00:04:55;;;;;;;;;;;20.50;80.20;;;;;;6177982;23;19985;-96
2022/06/14 00:07:21;;;;;;;;;;;20.60;80.20;;;;;;6207060;23;19939;-96
2022/06/14 00:09:47;;;;;;;;;;;20.50;80.80;;;;;;6183313;23;19944;-96
2022/06/14 00:12:16;;;;;;;;;;;20.50;80.70;;;;;;6182475;23;20365;-96
2022/06/14 00:14:42;;;;;;;;;;;20.50;80.50;;;;;;6182599;23;19943;-96
2022/06/14 00:17:08;;;;;;;;;;;20.50;80.30;;;;;;6208998;23;19963;-96
2022/06/14 00:19:34;;;;;;;;;;;20.30;80.10;;;;;;6183418;23;19988;-96
2022/06/14 00:22:02;;;;;;;;;;;19.90;81.00;;;;;;6208902;23;19931;-96
2022/06/14 00:24:28;;;;;;;;;;;19.80;81.90;;;;;;6183301;23;19984;-96
2022/06/14 00:26:57;;;;;;;;;;;19.80;82.10;;;;;;6183069;23;19965;-96
2022/06/14 00:29:23;;;;;;;;;;;19.70;82.50;;;;;;6183925;23;19944;-96
2022/06/14 00:31:49;;;;;;;;;;;19.60;83.20;;;;;;6183633;23;19942;-96
2022/06/14 00:34:15;;;;;;;;;;;19.50;83.40;;;;;;6209840;23;19934;-96
2022/06/14 00:36:50;;;;;;;;;;;19.50;83.80;;;;;;6208719;23;19978;-96
2022/06/14 00:39:16;;;;;;;;;;;19.50;84.00;;;;;;6183161;23;19937;-96
2022/06/14 00:41:43;;;;;;;;;;;19.50;84.50;;;;;;6183149;23;19954;-96
2022/06/14 00:44:19;;;;;;;;;;;19.50;84.60;;;;;;6183060;23;19964;-96
2022/06/14 00:46:51;;;;;;;;;;;19.50;84.60;;;;;;6207696;23;19979;-96
2022/06/14 00:49:39;;;;;;;;;;;19.60;84.70;;;;;;6175300;23;20000;-96
2022/06/14 00:52:15;;;;;;;;;;;19.60;84.60;;;;;;6175716;23;20030;-96
2022/06/14 00:54:43;;;;;;;;;;;19.60;84.80;;;;;;6176345;23;19941;-96
2022/06/14 00:57:11;;;;;;;;;;;19.70;84.90;;;;;;6176505;23;19960;-96
2022/06/14 00:59:44;;;;;;;;;;;19.80;84.70;;;;;;6177041;23;19977;-96
2022/06/14 01:02:13;;;;;;;;;;;19.90;84.20;;;;;;6177102;23;19939;-96
2022/06/14 01:04:40;;;;;;;;;;;20.00;83.80;;;;;;6200850;23;19934;-96
2022/06/14 01:07:15;;;;;;;;;;;20.00;83.60;;;;;;6178154;23;19936;-96
2022/06/14 01:09:44;;;;;;;;;;;19.90;83.50;;;;;;6201973;23;19937;-96
2022/06/14 01:12:18;;;;;;;;;;;19.90;83.90;;;;;;6177511;23;19946;-96
2022/06/14 01:14:54;;;;;;;;;;;19.90;83.90;;;;;;6177925;23;19950;-96
2022/06/14 01:17:20;;;;;;;;;;;19.80;84.00;;;;;;6178222;23;19963;-96
2022/06/14 01:19:46;;;;;;;;;;;19.80;84.40;;;;;;6177061;23;19942;-96
2022/06/14 01:22:12;;;;;;;;;;;19.90;84.50;;;;;;6177518;23;19948;-96
2022/06/14 01:24:39;;;;;;;;;;;20.00;84.20;;;;;;6202142;23;19984;-96
2022/06/14 01:27:07;;;;;;;;;;;20.10;84.70;;;;;;6176779;23;19958;-96
2022/06/14 01:29:34;;;;;;;;;;;20.20;84.60;;;;;;6170567;23;19942;-96
2022/06/14 01:32:01;;;;;;;;;;;20.30;84.60;;;;;;6169683;23;19943;-96
2022/06/14 01:34:30;;;;;;;;;;;20.30;84.20;;;;;;6168485;23;20020;-96
2022/06/14 01:36:57;;;;;;;;;;;20.40;82.70;;;;;;6170589;23;19958;-96
2022/06/14 01:39:23;;;;;;;;;;;20.70;81.40;;;;;;6170442;23;19964;-96
2022/06/14 01:41:55;;;;;;;;;;;20.90;80.60;;;;;;6198636;23;19937;-96
2022/06/14 01:44:27;;;;;;;;;;;21.00;80.30;;;;;;6199651;23;20275;-96
2022/06/14 01:47:12;;;;;;;;;;;21.00;80.10;;;;;;6199766;23;19945;-96
2022/06/14 01:52:50;;;;;;;;;;;21.10;82.00;;;;;;6179065;23;19941;-96
2022/06/14 01:55:16;;;;;;;;;;;21.10;82.20;;;;;;6177541;23;19984;-96
2022/06/14 01:57:52;;;;;;;;;;;20.90;83.00;;;;;;6202567;23;19956;-96
2022/06/14 02:00:27;;;;;;;;;;;20.80;83.00;;;;;;6178081;23;19967;-96
2022/06/14 02:04:36;;;;;;;;;;;20.60;83.20;;;;;;6177007;23;19948;-96
2022/06/14 02:05:42;;;;;;;;;;;20.40;83.40;;;;;;6177651;23;19966;-96
2022/06/14 02:08:15;;;;;;;;;;;20.30;83.70;;;;;;6177410;23;19950;-96
2022/06/14 02:10:41;;;;;;;;;;;20.30;83.70;;;;;;6176056;23;19929;-96
2022/06/14 02:13:19;;;;;;;;;;;20.40;83.30;;;;;;6200891;23;19941;-96
2022/06/14 02:15:51;;;;;;;;;;;20.40;83.20;;;;;;6177456;23;19958;-96
2022/06/14 02:18:50;;;;;;;;;;;20.30;83.30;;;;;;6175459;23;19960;-96
2022/06/14 02:21:28;;;;;;;;;;;20.30;83.40;;;;;;6119065;23;19949;-96
2022/06/14 02:23:57;;;;;;;;;;;20.20;83.50;;;;;;6175018;23;19972;-96
2022/06/14 02:26:26;;;;;;;;;;;20.20;83.80;;;;;;6176117;23;19959;-96
2022/06/14 02:29:04;;;;;;;;;;;20.30;83.90;;;;;;6174200;23;19941;-96
2022/06/14 02:31:32;;;;;;;;;;;20.30;83.90;;;;;;6176746;23;19940;-96
2022/06/14 02:34:10;;;;;;;;;;;20.30;83.70;;;;;;6175218;23;19952;-96
2022/06/14 02:36:42;;;;;;;;;;;20.20;83.40;;;;;;6174157;23;20007;-96
2022/06/14 02:39:13;;;;;;;;;;;20.10;83.40;;;;;;6176407;23;19981;-96
2022/06/14 02:42:00;;;;;;;;;;;20.10;83.50;;;;;;6175548;23;19931;-96
2022/06/14 02:44:33;;;;;;;;;;;20.10;83.30;;;;;;6174804;23;19958;-96
2022/06/14 02:47:03;;;;;;;;;;;20.10;82.60;;;;;;6173775;23;19947;-96
2022/06/14 02:49:48;;;;;;;;;;;20.20;81.60;;;;;;6204154;23;19949;-96
2022/06/14 02:52:18;;;;;;;;;;;20.30;81.40;;;;;;6205762;23;20027;-96
2022/06/14 02:54:50;;;;;;;;;;;20.30;81.20;;;;;;6179515;23;19968;-96
2022/06/14 02:57:36;;;;;;;;;;;20.30;80.60;;;;;;6205465;23;19970;-96
2022/06/14 03:00:06;;;;;;;;;;;20.40;79.90;;;;;;6202491;23;19980;-96
2022/06/14 03:02:36;;;;;;;;;;;20.50;79.20;;;;;;6205978;23;20307;-96
2022/06/14 03:05:08;;;;;;;;;;;20.60;78.10;;;;;;6202662;23;19939;-96
2022/06/14 03:07:53;;;;;;;;;;;20.80;76.60;;;;;;6202630;23;19949;-96
2022/06/14 03:10:19;;;;;;;;;;;21.00;75.50;;;;;;6174946;23;19940;-96
2022/06/14 03:12:55;;;;;;;;;;;21.20;74.60;;;;;;6203135;23;19945;-96
2022/06/14 03:15:51;;;;;;;;;;;21.30;74.00;;;;;;6183293;23;19944;-96
2022/06/14 03:18:30;;;;;;;;;;;21.30;73.90;;;;;;6106128;23;19953;-96
2022/06/14 03:21:15;;;;;;;;;;;21.30;73.10;;;;;;6184478;23;19920;-96
2022/06/14 03:23:47;;;;;;;;;;;21.30;72.70;;;;;;6185736;23;19940;-96
2022/06/14 03:26:28;;;;;;;;;;;21.30;72.70;;;;;;6185863;23;19946;-96
2022/06/14 03:29:05;;;;;;;;;;;21.30;72.20;;;;;;6211445;23;19940;-96
2022/06/14 03:31:51;;;;;;;;;;;21.30;71.30;;;;;;6211588;23;19933;-96
2022/06/14 03:34:27;;;;;;;;;;;21.30;70.20;;;;;;6211214;23;19980;-96
2022/06/14 03:36:53;;;;;;;;;;;21.30;69.70;;;;;;6186213;23;19988;-97
2022/06/14 03:39:23;;;;;;;;;;;21.30;69.90;;;;;;6213826;23;19936;-96
2022/06/14 03:41:53;;;;;;;;;;;21.30;70.10;;;;;;6213347;23;19938;-96
2022/06/14 03:44:22;;;;;;;;;;;21.30;69.30;;;;;;6187817;23;19965;-96
2022/06/14 03:46:52;;;;;;;;;;;21.30;69.10;;;;;;6187310;23;19912;-96
2022/06/14 03:49:22;;;;;;;;;;;21.30;69.70;;;;;;6212747;23;19970;-96
2022/06/14 03:52:23;;;;;;;;;;;21.30;69.50;;;;;;6187152;23;19973;-97
2022/06/14 03:54:59;;;;;;;;;;;21.30;69.50;;;;;;6151801;23;19955;-96
2022/06/14 03:57:32;;;;;;;;;;;21.30;69.10;;;;;;6187255;23;19949;-96
2022/06/14 04:00:04;;;;;;;;;;;21.30;69.50;;;;;;6186459;23;19944;-96
2022/06/14 04:02:55;;;;;;;;;;;21.40;68.60;;;;;;6177071;23;19947;-96
2022/06/14 04:05:39;;;;;;;;;;;21.40;68.70;;;;;;6175648;23;20274;-96
2022/06/14 04:08:24;;;;;;;;;;;21.40;68.60;;;;;;6202822;23;20363;-96
2022/06/14 04:10:58;;;;;;;;;;;21.40;68.30;;;;;;6175973;23;19943;-96
2022/06/14 04:13:28;;;;;;;;;;;21.50;68.80;;;;;;6202816;23;19944;-96
2022/06/14 04:15:53;;;;;;;;;;;21.40;68.40;;;;;;6204097;23;19994;-96
2022/06/14 04:18:38;;;;;;;;;;;21.40;67.80;;;;;;6182947;23;19985;-96
2022/06/14 04:21:13;;;;;;;;;;;21.40;68.40;;;;;;6159221;23;19940;-96
2022/06/14 04:23:58;;;;;;;;;;;21.40;68.30;;;;;;6183983;23;19941;-96
2022/06/14 04:26:36;;;;;;;;;;;21.40;68.20;;;;;;6183247;23;19982;-96
2022/06/14 04:29:18;;;;;;;;;;;21.40;68.10;;;;;;6185510;23;19990;-96
2022/06/14 04:32:04;;;;;;;;;;;21.50;68.40;;;;;;6184742;23;19943;-96
2022/06/14 04:34:36;;;;;;;;;;;21.50;67.70;;;;;;6187871;23;20278;-96
2022/06/14 04:37:02;;;;;;;;;;;21.50;67.90;;;;;;6181137;23;19978;-96
2022/06/14 04:39:37;;;;;;;;;;;21.60;68.00;;;;;;6185170;23;19967;-96
2022/06/14 04:42:08;;;;;;;;;;;21.70;67.70;;;;;;6185411;23;19940;-97
2022/06/14 04:44:43;;;;;;;;;;;21.80;67.90;;;;;;6185124;23;19967;-96
2022/06/14 04:47:12;;;;;;;;;;;21.80;67.60;;;;;;6184887;23;19943;-96
2022/06/14 04:49:41;;;;;;;;;;;21.80;67.30;;;;;;6211604;23;19943;-96
2022/06/14 04:52:34;;;;;;;;;;;21.90;67.20;;;;;;6184681;23;20017;-96
2022/06/14 04:55:13;;;;;;;;;;;22.00;67.10;;;;;;6204586;23;19941;-96
2022/06/14 04:57:43;;;;;;;;;;;22.10;66.80;;;;;;6184711;23;19954;-96
2022/06/14 05:00:14;;;;;;;;;;;22.10;66.80;;;;;;6186131;23;19925;-96
2022/06/14 05:02:42;;;;;;;;;;;22.10;66.70;;;;;;6211211;23;20093;-96
2022/06/14 05:05:14;;;;;;;;;;;22.20;66.50;;;;;;6184762;23;20021;-96
2022/06/14 05:07:45;;;;;;;;;;;22.30;65.90;;;;;;6182783;23;19936;-97
2022/06/14 05:10:17;;;;;;;;;;;22.30;66.00;;;;;;6204692;23;19960;-96
2022/06/14 05:12:52;;;;;;;;;;;22.40;65.60;;;;;;6203671;23;20044;-96
2022/06/14 05:15:21;;;;;;;;;;;22.60;65.10;;;;;;6175374;23;19942;-96
2022/06/14 05:18:04;;;;;;;;;;;22.80;64.60;;;;;;6175233;23;19967;-96
2022/06/14 05:20:35;;;;;;;;;;;22.80;64.30;;;;;;6203826;23;19938;-96
2022/06/14 05:23:01;;;;;;;;;;;22.90;64.50;;;;;;6179982;23;19948;-96
2022/06/14 05:25:35;;;;;;;;;;;22.90;64.20;;;;;;6210167;23;19943;-96
2022/06/14 05:28:03;;;;;;;;;;;23.00;63.30;;;;;;6178974;23;20028;-96
2022/06/14 05:30:40;;;;;;;;;;;23.00;63.60;;;;;;6174611;23;19937;-96
2022/06/14 06:22:22;;;;;;;;;;;24.90;55.20;;;;;;6193733;23;19970;-96
2022/06/14 06:24:59;;;;;;;;;;;25.00;55.50;;;;;;6213105;23;19940;-96
2022/06/14 06:27:39;;;;;;;;;;;25.20;55.50;;;;;;6214181;23;19940;-96
2022/06/14 06:56:19;;;;;;;;;;;25.90;54.00;;;;;;6188722;23;19968;-96
2022/06/14 11:51:08;;;;;;;;;;;31.30;37.90;;;;;;6172908;22;19978;-96
2022/06/14 11:53:36;;;;;;;;;;;31.50;38.50;;;;;;6207190;23;19982;-96
2022/06/14 11:56:17;;;;;;;;;;;31.60;36.80;;;;;;6181236;23;19941;-96
2022/06/14 11:58:58;;;;;;;;;;;31.80;38.70;;;;;;6186439;23;19957;-96
2022/06/14 12:01:34;;;;;;;;;;;32.10;38.60;;;;;;6186809;23;19945;-96
2022/06/14 12:04:00;;;;;;;;;;;32.20;39.00;;;;;;6212792;23;19988;-96
2022/06/14 12:06:45;;;;;;;;;;;32.20;35.60;;;;;;6186124;23;19938;-96
2022/06/14 12:09:29;;;;;;;;;;;31.90;37.80;;;;;;6185695;23;19943;-96
2022/06/14 12:38:00;;;;;;;;;;;34.60;31.40;;;;;;6170011;23;19980;-96
2022/06/14 12:40:26;;;;;;;;;;;34.20;32.60;;;;;;6207467;23;19960;-96
2022/06/14 12:43:20;;;;;;;;;;;34.10;33.50;;;;;;6184060;23;19945;-96
2022/06/14 12:45:51;;;;;;;;;;;34.50;32.70;;;;;;6202265;23;19993;-97
2022/06/14 12:48:19;;;;;;;;;;;34.70;33.70;;;;;;6206762;23;19959;-96
2022/06/14 12:50:49;;;;;;;;;;;34.70;33.00;;;;;;6208477;23;19948;-96
2022/06/14 12:53:15;;;;;;;;;;;34.70;31.50;;;;;;6179417;23;19941;-97
2022/06/14 12:55:44;;;;;;;;;;;34.50;30.20;;;;;;6177525;23;20055;-96
2022/06/14 12:58:17;;;;;;;;;;;34.20;31.20;;;;;;6181520;23;19939;-96
2022/06/14 13:00:52;;;;;;;;;;;33.90;29.50;;;;;;6182020;23;20060;-96
2022/06/14 13:03:21;;;;;;;;;;;34.20;33.00;;;;;;6186168;23;19967;-96
2022/06/14 13:05:53;;;;;;;;;;;34.60;33.40;;;;;;6211515;23;19956;-96
2022/06/14 13:08:25;;;;;;;;;;;35.30;32.40;;;;;;6184040;23;19960;-96
2022/06/14 13:10:51;;;;;;;;;;;36.40;29.70;;;;;;6183668;23;19959;-96
2022/06/14 13:52:25;;;;;;;;;;;38.70;26.10;;;;;;6204347;23;20298;-96
2022/06/14 13:54:57;;;;;;;;;;;38.80;26.70;;;;;;6181267;23;19930;-97
2022/06/14 13:57:33;;;;;;;;;;;39.20;25.60;;;;;;6183256;23;20310;-96
2022/06/14 14:00:08;;;;;;;;;;;39.70;25.20;;;;;;6184300;23;19992;-96
2022/06/14 14:02:49;;;;;;;;;;;40.10;24.40;;;;;;6205220;23;19943;-97
2022/06/14 14:33:53;;;;;;;;;;;42.30;20.80;;;;;;6207528;22;19959;-96
2022/06/14 14:36:25;;;;;;;;;;;42.40;21.50;;;;;;6181844;23;19951;-96
2022/06/14 14:38:58;;;;;;;;;;;41.90;24.10;;;;;;6204111;23;19939;-96
2022/06/14 14:41:41;;;;;;;;;;;41.30;24.40;;;;;;6175376;23;20043;-96
2022/06/14 14:44:17;;;;;;;;;;;41.40;21.80;;;;;;6172762;23;19943;-96
